sensor_id;sensor_type;location;lat;lon;timestamp;P1;durP1;ratioP1;P2;durP2;ratioP2
5543;SDS011;2795;47.652;13.128;2024-03-02T00:00:32;57.33;;;19.73;;
5543;SDS011;2795;47.652;13.128;2024-03-02T00:03:00;41.73;;;17.27;;
5543;SDS011;2795;47.652;13.128;2024-03-02T00:05:26;48.63;;;18.50;;
5543;SDS011;2795;47.652;13.128;2024-03-02T00:10:25;55.53;;;18.60;;
5543;SDS011;2795;47.652;13.128;2024-03-02T00:12:56;57.60;;;19.63;;
5543;SDS011;2795;47.652;13.128;2024-03-02T00:17:53;62.93;;;23.17;;
5543;SDS011;2795;47.652;13.128;2024-03-02T00:20:21;56.40;;;21.03;;
5543;SDS011;2795;47.652;13.128;2024-03-02T00:22:49;63.50;;;20.27;;
5543;SDS011;2795;47.652;13.128;2024-03-02T00:25:17;53.00;;;19.43;;
5543;SDS011;2795;47.652;13.128;2024-03-02T00:27:47;48.67;;;19.00;;
5543;SDS011;2795;47.652;13.128;2024-03-02T00:33:11;68.43;;;24.10;;
5543;SDS011;2795;47.652;13.128;2024-03-02T00:35:38;58.10;;;20.23;;
5543;SDS011;2795;47.652;13.128;2024-03-02T00:38:08;66.00;;;22.60;;
5543;SDS011;2795;47.652;13.128;2024-03-02T00:40:34;56.77;;;21.10;;
5543;SDS011;2795;47.652;13.128;2024-03-02T00:43:01;50.53;;;18.67;;
5543;SDS011;2795;47.652;13.128;2024-03-02T00:45:29;50.87;;;18.77;;
5543;SDS011;2795;47.652;13.128;2024-03-02T00:47:56;53.60;;;19.77;;
5543;SDS011;2795;47.652;13.128;2024-03-02T00:50:23;49.77;;;19.50;;
5543;SDS011;2795;47.652;13.128;2024-03-02T00:52:56;52.87;;;19.57;;
5543;SDS011;2795;47.652;13.128;2024-03-02T00:55:23;54.40;;;19.40;;
5543;SDS011;2795;47.652;13.128;2024-03-02T00:57:50;52.87;;;19.60;;
5543;SDS011;2795;47.652;13.128;2024-03-02T01:00:17;60.73;;;21.37;;
5543;SDS011;2795;47.652;13.128;2024-03-02T01:02:44;55.73;;;21.27;;
5543;SDS011;2795;47.652;13.128;2024-03-02T01:05:12;67.13;;;22.10;;
5543;SDS011;2795;47.652;13.128;2024-03-02T01:07:39;58.77;;;22.77;;
5543;SDS011;2795;47.652;13.128;2024-03-02T01:10:06;63.73;;;21.57;;
5543;SDS011;2795;47.652;13.128;2024-03-02T01:12:34;55.10;;;21.20;;
5543;SDS011;2795;47.652;13.128;2024-03-02T01:15:01;62.23;;;22.90;;
5543;SDS011;2795;47.652;13.128;2024-03-02T01:17:30;64.97;;;20.67;;
5543;SDS011;2795;47.652;13.128;2024-03-02T01:19:57;61.60;;;21.30;;
5543;SDS011;2795;47.652;13.128;2024-03-02T01:22:23;62.53;;;21.23;;
5543;SDS011;2795;47.652;13.128;2024-03-02T01:24:52;53.90;;;19.20;;
5543;SDS011;2795;47.652;13.128;2024-03-02T01:27:18;54.60;;;19.37;;
5543;SDS011;2795;47.652;13.128;2024-03-02T01:29:46;50.83;;;18.13;;
5543;SDS011;2795;47.652;13.128;2024-03-02T01:32:13;51.30;;;17.23;;
5543;SDS011;2795;47.652;13.128;2024-03-02T01:34:39;51.60;;;17.97;;
5543;SDS011;2795;47.652;13.128;2024-03-02T01:37:06;46.63;;;17.53;;
5543;SDS011;2795;47.652;13.128;2024-03-02T01:39:33;60.50;;;17.90;;
5543;SDS011;2795;47.652;13.128;2024-03-02T01:42:00;45.07;;;15.70;;
5543;SDS011;2795;47.652;13.128;2024-03-02T01:44:26;44.83;;;15.93;;
5543;SDS011;2795;47.652;13.128;2024-03-02T01:46:53;54.17;;;18.83;;
5543;SDS011;2795;47.652;13.128;2024-03-02T01:49:20;52.97;;;17.77;;
5543;SDS011;2795;47.652;13.128;2024-03-02T01:51:47;45.53;;;17.80;;
5543;SDS011;2795;47.652;13.128;2024-03-02T01:54:13;60.07;;;19.53;;
5543;SDS011;2795;47.652;13.128;2024-03-02T01:56:40;55.17;;;18.60;;
5543;SDS011;2795;47.652;13.128;2024-03-02T01:59:07;49.90;;;17.57;;
5543;SDS011;2795;47.652;13.128;2024-03-02T02:01:34;43.37;;;16.37;;
5543;SDS011;2795;47.652;13.128;2024-03-02T02:04:01;57.90;;;18.23;;
5543;SDS011;2795;47.652;13.128;2024-03-02T02:06:28;57.87;;;18.10;;
5543;SDS011;2795;47.652;13.128;2024-03-02T02:08:54;55.77;;;18.57;;
5543;SDS011;2795;47.652;13.128;2024-03-02T02:11:21;57.00;;;17.60;;
5543;SDS011;2795;47.652;13.128;2024-03-02T02:13:48;49.10;;;17.53;;
5543;SDS011;2795;47.652;13.128;2024-03-02T02:16:15;42.83;;;17.03;;
5543;SDS011;2795;47.652;13.128;2024-03-02T02:18:42;65.80;;;19.77;;
5543;SDS011;2795;47.652;13.128;2024-03-02T02:21:08;63.07;;;21.20;;
5543;SDS011;2795;47.652;13.128;2024-03-02T02:23:35;56.30;;;19.07;;
5543;SDS011;2795;47.652;13.128;2024-03-02T02:26:02;55.20;;;18.53;;
5543;SDS011;2795;47.652;13.128;2024-03-02T02:28:30;48.30;;;17.20;;
5543;SDS011;2795;47.652;13.128;2024-03-02T02:30:56;59.33;;;21.03;;
5543;SDS011;2795;47.652;13.128;2024-03-02T02:33:23;49.43;;;19.40;;
5543;SDS011;2795;47.652;13.128;2024-03-02T02:35:50;56.27;;;19.07;;
5543;SDS011;2795;47.652;13.128;2024-03-02T02:38:17;61.90;;;19.10;;
5543;SDS011;2795;47.652;13.128;2024-03-02T02:40:43;49.07;;;17.23;;
5543;SDS011;2795;47.652;13.128;2024-03-02T02:43:10;61.03;;;20.60;;
5543;SDS011;2795;47.652;13.128;2024-03-02T02:45:37;51.90;;;18.57;;
5543;SDS011;2795;47.652;13.128;2024-03-02T02:48:04;58.97;;;19.47;;
5543;SDS011;2795;47.652;13.128;2024-03-02T02:50:32;61.50;;;21.77;;
5543;SDS011;2795;47.652;13.128;2024-03-02T02:52:58;51.27;;;19.67;;
5543;SDS011;2795;47.652;13.128;2024-03-02T02:55:25;66.77;;;21.30;;
5543;SDS011;2795;47.652;13.128;2024-03-02T02:57:52;54.20;;;19.17;;
5543;SDS011;2795;47.652;13.128;2024-03-02T03:00:19;51.27;;;18.17;;
5543;SDS011;2795;47.652;13.128;2024-03-02T03:02:47;50.37;;;18.57;;
5543;SDS011;2795;47.652;13.128;2024-03-02T03:05:16;49.63;;;17.83;;
5543;SDS011;2795;47.652;13.128;2024-03-02T03:07:44;62.87;;;21.03;;
5543;SDS011;2795;47.652;13.128;2024-03-02T03:10:11;52.17;;;17.97;;
5543;SDS011;2795;47.652;13.128;2024-03-02T03:12:40;68.57;;;21.00;;
5543;SDS011;2795;47.652;13.128;2024-03-02T03:15:08;52.73;;;19.67;;
5543;SDS011;2795;47.652;13.128;2024-03-02T03:17:36;61.90;;;20.17;;
5543;SDS011;2795;47.652;13.128;2024-03-02T03:20:04;62.53;;;21.60;;
5543;SDS011;2795;47.652;13.128;2024-03-02T03:22:32;53.83;;;20.47;;
5543;SDS011;2795;47.652;13.128;2024-03-02T03:24:59;51.63;;;19.00;;
5543;SDS011;2795;47.652;13.128;2024-03-02T03:27:26;64.20;;;18.57;;
5543;SDS011;2795;47.652;13.128;2024-03-02T03:29:53;68.50;;;21.40;;
5543;SDS011;2795;47.652;13.128;2024-03-02T03:32:21;60.87;;;20.53;;
5543;SDS011;2795;47.652;13.128;2024-03-02T03:34:48;47.93;;;18.30;;
5543;SDS011;2795;47.652;13.128;2024-03-02T03:37:15;56.40;;;21.30;;
5543;SDS011;2795;47.652;13.128;2024-03-02T03:39:42;54.33;;;19.07;;
5543;SDS011;2795;47.652;13.128;2024-03-02T03:42:09;42.17;;;17.87;;
5543;SDS011;2795;47.652;13.128;2024-03-02T03:44:35;59.63;;;20.27;;
5543;SDS011;2795;47.652;13.128;2024-03-02T03:47:02;56.17;;;20.50;;
5543;SDS011;2795;47.652;13.128;2024-03-02T03:49:29;51.27;;;18.80;;
5543;SDS011;2795;47.652;13.128;2024-03-02T03:51:56;59.60;;;19.40;;
5543;SDS011;2795;47.652;13.128;2024-03-02T03:54:22;55.47;;;18.80;;
5543;SDS011;2795;47.652;13.128;2024-03-02T03:56:49;54.23;;;19.10;;
5543;SDS011;2795;47.652;13.128;2024-03-02T03:59:16;53.13;;;18.57;;
5543;SDS011;2795;47.652;13.128;2024-03-02T04:01:43;59.27;;;21.00;;
5543;SDS011;2795;47.652;13.128;2024-03-02T04:04:09;53.17;;;18.10;;
5543;SDS011;2795;47.652;13.128;2024-03-02T04:06:36;64.57;;;19.23;;
5543;SDS011;2795;47.652;13.128;2024-03-02T04:09:03;56.33;;;18.83;;
5543;SDS011;2795;47.652;13.128;2024-03-02T04:11:30;51.80;;;17.80;;
5543;SDS011;2795;47.652;13.128;2024-03-02T04:13:57;56.07;;;17.87;;
5543;SDS011;2795;47.652;13.128;2024-03-02T04:16:24;58.67;;;18.63;;
5543;SDS011;2795;47.652;13.128;2024-03-02T04:18:51;45.20;;;17.10;;
5543;SDS011;2795;47.652;13.128;2024-03-02T04:21:18;70.03;;;19.53;;
5543;SDS011;2795;47.652;13.128;2024-03-02T04:23:45;53.70;;;17.40;;
5543;SDS011;2795;47.652;13.128;2024-03-02T04:26:12;46.83;;;15.10;;
5543;SDS011;2795;47.652;13.128;2024-03-02T04:28:39;47.43;;;15.57;;
5543;SDS011;2795;47.652;13.128;2024-03-02T04:31:05;60.47;;;19.87;;
5543;SDS011;2795;47.652;13.128;2024-03-02T04:33:32;57.90;;;18.63;;
5543;SDS011;2795;47.652;13.128;2024-03-02T04:35:59;57.00;;;19.40;;
5543;SDS011;2795;47.652;13.128;2024-03-02T04:38:26;51.73;;;17.10;;
5543;SDS011;2795;47.652;13.128;2024-03-02T04:40:53;56.33;;;16.80;;
5543;SDS011;2795;47.652;13.128;2024-03-02T04:43:19;47.37;;;16.10;;
5543;SDS011;2795;47.652;13.128;2024-03-02T04:45:46;53.30;;;16.70;;
5543;SDS011;2795;47.652;13.128;2024-03-02T04:48:13;57.80;;;17.03;;
5543;SDS011;2795;47.652;13.128;2024-03-02T04:50:40;63.77;;;18.90;;
5543;SDS011;2795;47.652;13.128;2024-03-02T04:53:07;52.80;;;16.93;;
5543;SDS011;2795;47.652;13.128;2024-03-02T04:55:34;49.73;;;16.43;;
5543;SDS011;2795;47.652;13.128;2024-03-02T04:58:01;59.93;;;17.70;;
5543;SDS011;2795;47.652;13.128;2024-03-02T05:00:28;63.77;;;18.87;;
5543;SDS011;2795;47.652;13.128;2024-03-02T05:02:55;54.67;;;16.57;;
5543;SDS011;2795;47.652;13.128;2024-03-02T05:05:21;62.33;;;19.90;;
5543;SDS011;2795;47.652;13.128;2024-03-02T05:07:48;54.70;;;18.70;;
5543;SDS011;2795;47.652;13.128;2024-03-02T05:10:15;49.97;;;16.67;;
5543;SDS011;2795;47.652;13.128;2024-03-02T05:12:42;57.80;;;19.17;;
5543;SDS011;2795;47.652;13.128;2024-03-02T05:15:10;56.70;;;18.60;;
5543;SDS011;2795;47.652;13.128;2024-03-02T05:17:38;50.17;;;17.40;;
5543;SDS011;2795;47.652;13.128;2024-03-02T05:20:09;44.70;;;16.10;;
5543;SDS011;2795;47.652;13.128;2024-03-02T05:22:36;46.97;;;16.43;;
5543;SDS011;2795;47.652;13.128;2024-03-02T05:25:04;45.00;;;15.10;;
5543;SDS011;2795;47.652;13.128;2024-03-02T05:27:31;48.67;;;15.33;;
5543;SDS011;2795;47.652;13.128;2024-03-02T05:29:59;43.07;;;14.07;;
5543;SDS011;2795;47.652;13.128;2024-03-02T05:32:26;49.17;;;13.87;;
5543;SDS011;2795;47.652;13.128;2024-03-02T05:34:54;40.13;;;14.40;;
5543;SDS011;2795;47.652;13.128;2024-03-02T05:37:21;42.53;;;14.37;;
5543;SDS011;2795;47.652;13.128;2024-03-02T05:39:48;51.13;;;16.20;;
5543;SDS011;2795;47.652;13.128;2024-03-02T05:42:15;41.10;;;13.40;;
5543;SDS011;2795;47.652;13.128;2024-03-02T05:44:43;46.93;;;14.30;;
5543;SDS011;2795;47.652;13.128;2024-03-02T05:47:10;50.27;;;15.77;;
5543;SDS011;2795;47.652;13.128;2024-03-02T05:49:36;49.27;;;14.83;;
5543;SDS011;2795;47.652;13.128;2024-03-02T05:52:03;51.67;;;14.50;;
5543;SDS011;2795;47.652;13.128;2024-03-02T05:54:30;47.20;;;17.10;;
5543;SDS011;2795;47.652;13.128;2024-03-02T05:56:57;49.40;;;16.93;;
5543;SDS011;2795;47.652;13.128;2024-03-02T05:59:43;51.10;;;16.03;;
5543;SDS011;2795;47.652;13.128;2024-03-02T06:02:12;42.07;;;13.30;;
5543;SDS011;2795;47.652;13.128;2024-03-02T06:04:39;50.13;;;14.50;;
5543;SDS011;2795;47.652;13.128;2024-03-02T06:07:06;55.37;;;14.93;;
5543;SDS011;2795;47.652;13.128;2024-03-02T06:09:33;41.27;;;12.67;;
5543;SDS011;2795;47.652;13.128;2024-03-02T06:11:59;42.07;;;13.67;;
5543;SDS011;2795;47.652;13.128;2024-03-02T06:14:26;41.57;;;13.00;;
5543;SDS011;2795;47.652;13.128;2024-03-02T06:16:53;37.83;;;12.43;;
5543;SDS011;2795;47.652;13.128;2024-03-02T06:19:20;36.27;;;12.80;;
5543;SDS011;2795;47.652;13.128;2024-03-02T06:21:46;47.07;;;13.03;;
5543;SDS011;2795;47.652;13.128;2024-03-02T06:24:13;40.63;;;12.17;;
5543;SDS011;2795;47.652;13.128;2024-03-02T06:26:40;33.30;;;11.90;;
5543;SDS011;2795;47.652;13.128;2024-03-02T06:29:06;40.47;;;12.90;;
5543;SDS011;2795;47.652;13.128;2024-03-02T06:31:34;36.47;;;12.70;;
5543;SDS011;2795;47.652;13.128;2024-03-02T06:34:01;40.30;;;13.00;;
5543;SDS011;2795;47.652;13.128;2024-03-02T06:36:30;29.60;;;11.13;;
5543;SDS011;2795;47.652;13.128;2024-03-02T06:38:57;29.30;;;10.27;;
5543;SDS011;2795;47.652;13.128;2024-03-02T06:41:23;35.73;;;12.50;;
5543;SDS011;2795;47.652;13.128;2024-03-02T06:43:50;34.10;;;12.17;;
5543;SDS011;2795;47.652;13.128;2024-03-02T06:46:20;40.40;;;12.30;;
5543;SDS011;2795;47.652;13.128;2024-03-02T06:48:47;34.50;;;12.47;;
5543;SDS011;2795;47.652;13.128;2024-03-02T06:51:14;35.57;;;12.50;;
5543;SDS011;2795;47.652;13.128;2024-03-02T06:53:42;46.30;;;13.00;;
5543;SDS011;2795;47.652;13.128;2024-03-02T06:56:09;42.43;;;12.80;;
5543;SDS011;2795;47.652;13.128;2024-03-02T06:58:35;30.90;;;11.07;;
5543;SDS011;2795;47.652;13.128;2024-03-02T07:01:02;28.30;;;11.30;;
5543;SDS011;2795;47.652;13.128;2024-03-02T07:03:29;37.13;;;11.97;;
5543;SDS011;2795;47.652;13.128;2024-03-02T07:05:56;30.10;;;11.50;;
5543;SDS011;2795;47.652;13.128;2024-03-02T07:08:23;31.43;;;11.10;;
5543;SDS011;2795;47.652;13.128;2024-03-02T07:10:50;31.67;;;11.30;;
5543;SDS011;2795;47.652;13.128;2024-03-02T07:13:17;37.03;;;12.17;;
5543;SDS011;2795;47.652;13.128;2024-03-02T07:15:44;37.40;;;12.17;;
5543;SDS011;2795;47.652;13.128;2024-03-02T07:18:10;28.30;;;10.87;;
5543;SDS011;2795;47.652;13.128;2024-03-02T07:20:37;40.03;;;13.00;;
5543;SDS011;2795;47.652;13.128;2024-03-02T07:23:05;34.43;;;12.70;;
5543;SDS011;2795;47.652;13.128;2024-03-02T07:25:32;32.20;;;12.43;;
5543;SDS011;2795;47.652;13.128;2024-03-02T07:28:02;42.00;;;13.97;;
5543;SDS011;2795;47.652;13.128;2024-03-02T07:30:29;45.10;;;14.70;;
5543;SDS011;2795;47.652;13.128;2024-03-02T07:32:59;46.87;;;15.87;;
5543;SDS011;2795;47.652;13.128;2024-03-02T07:35:26;44.50;;;15.17;;
5543;SDS011;2795;47.652;13.128;2024-03-02T07:37:54;41.97;;;14.90;;
5543;SDS011;2795;47.652;13.128;2024-03-02T07:40:21;47.40;;;15.87;;
5543;SDS011;2795;47.652;13.128;2024-03-02T07:42:48;46.67;;;14.43;;
5543;SDS011;2795;47.652;13.128;2024-03-02T07:45:15;33.53;;;13.53;;
5543;SDS011;2795;47.652;13.128;2024-03-02T07:47:42;45.17;;;15.47;;
5543;SDS011;2795;47.652;13.128;2024-03-02T07:50:09;37.37;;;13.47;;
5543;SDS011;2795;47.652;13.128;2024-03-02T07:52:35;51.43;;;15.10;;
5543;SDS011;2795;47.652;13.128;2024-03-02T07:55:02;43.80;;;15.73;;
5543;SDS011;2795;47.652;13.128;2024-03-02T07:57:29;35.20;;;13.83;;
5543;SDS011;2795;47.652;13.128;2024-03-02T07:59:56;40.53;;;14.80;;
5543;SDS011;2795;47.652;13.128;2024-03-02T08:02:23;42.73;;;14.90;;
5543;SDS011;2795;47.652;13.128;2024-03-02T08:04:49;40.40;;;14.33;;
5543;SDS011;2795;47.652;13.128;2024-03-02T08:07:16;44.20;;;15.07;;
5543;SDS011;2795;47.652;13.128;2024-03-02T08:09:43;38.03;;;15.33;;
5543;SDS011;2795;47.652;13.128;2024-03-02T08:12:10;39.57;;;15.80;;
5543;SDS011;2795;47.652;13.128;2024-03-02T08:14:36;45.03;;;15.63;;
5543;SDS011;2795;47.652;13.128;2024-03-02T08:17:03;36.00;;;14.77;;
5543;SDS011;2795;47.652;13.128;2024-03-02T08:19:36;43.13;;;15.60;;
5543;SDS011;2795;47.652;13.128;2024-03-02T08:22:03;33.90;;;14.33;;
5543;SDS011;2795;47.652;13.128;2024-03-02T08:24:30;39.40;;;13.73;;
5543;SDS011;2795;47.652;13.128;2024-03-02T08:26:58;34.43;;;13.13;;
5543;SDS011;2795;47.652;13.128;2024-03-02T08:29:26;31.90;;;13.13;;
5543;SDS011;2795;47.652;13.128;2024-03-02T08:31:53;40.07;;;13.50;;
5543;SDS011;2795;47.652;13.128;2024-03-02T08:34:20;30.03;;;11.50;;
5543;SDS011;2795;47.652;13.128;2024-03-02T08:36:47;30.57;;;13.17;;
5543;SDS011;2795;47.652;13.128;2024-03-02T08:39:14;38.17;;;14.17;;
5543;SDS011;2795;47.652;13.128;2024-03-02T08:41:47;26.03;;;11.30;;
5543;SDS011;2795;47.652;13.128;2024-03-02T08:44:13;33.00;;;11.23;;
5543;SDS011;2795;47.652;13.128;2024-03-02T08:46:40;32.07;;;10.80;;
5543;SDS011;2795;47.652;13.128;2024-03-02T08:49:07;33.20;;;10.73;;
5543;SDS011;2795;47.652;13.128;2024-03-02T08:51:35;24.00;;;9.90;;
5543;SDS011;2795;47.652;13.128;2024-03-02T08:54:01;26.53;;;9.80;;
5543;SDS011;2795;47.652;13.128;2024-03-02T08:56:30;27.10;;;9.47;;
5543;SDS011;2795;47.652;13.128;2024-03-02T08:58:57;25.03;;;9.13;;
5543;SDS011;2795;47.652;13.128;2024-03-02T09:01:24;27.37;;;8.97;;
5543;SDS011;2795;47.652;13.128;2024-03-02T09:03:51;29.50;;;8.97;;
5543;SDS011;2795;47.652;13.128;2024-03-02T09:06:18;29.20;;;9.37;;
5543;SDS011;2795;47.652;13.128;2024-03-02T09:08:46;22.70;;;8.63;;
5543;SDS011;2795;47.652;13.128;2024-03-02T09:11:14;21.07;;;6.83;;
5543;SDS011;2795;47.652;13.128;2024-03-02T09:13:41;23.57;;;7.73;;
5543;SDS011;2795;47.652;13.128;2024-03-02T09:16:09;21.57;;;7.47;;
5543;SDS011;2795;47.652;13.128;2024-03-02T09:18:37;16.47;;;6.50;;
5543;SDS011;2795;47.652;13.128;2024-03-02T09:21:04;22.80;;;7.53;;
5543;SDS011;2795;47.652;13.128;2024-03-02T09:23:32;14.93;;;5.43;;
5543;SDS011;2795;47.652;13.128;2024-03-02T09:25:59;19.07;;;7.00;;
5543;SDS011;2795;47.652;13.128;2024-03-02T09:28:26;18.30;;;6.20;;
5543;SDS011;2795;47.652;13.128;2024-03-02T09:30:53;20.20;;;6.27;;
5543;SDS011;2795;47.652;13.128;2024-03-02T09:33:23;21.50;;;7.03;;
5543;SDS011;2795;47.652;13.128;2024-03-02T09:35:50;25.37;;;7.80;;
5543;SDS011;2795;47.652;13.128;2024-03-02T09:38:19;19.17;;;5.90;;
5543;SDS011;2795;47.652;13.128;2024-03-02T09:40:46;20.83;;;6.20;;
5543;SDS011;2795;47.652;13.128;2024-03-02T09:43:13;24.07;;;6.90;;
5543;SDS011;2795;47.652;13.128;2024-03-02T09:45:40;16.80;;;5.80;;
5543;SDS011;2795;47.652;13.128;2024-03-02T09:48:07;23.57;;;6.77;;
5543;SDS011;2795;47.652;13.128;2024-03-02T09:50:34;18.77;;;5.97;;
5543;SDS011;2795;47.652;13.128;2024-03-02T09:53:00;18.43;;;6.97;;
5543;SDS011;2795;47.652;13.128;2024-03-02T09:55:28;22.00;;;7.20;;
5543;SDS011;2795;47.652;13.128;2024-03-02T09:57:55;25.57;;;7.10;;
5543;SDS011;2795;47.652;13.128;2024-03-02T10:00:22;25.23;;;7.40;;
5543;SDS011;2795;47.652;13.128;2024-03-02T10:02:49;17.63;;;6.30;;
5543;SDS011;2795;47.652;13.128;2024-03-02T10:05:25;20.63;;;6.33;;
5543;SDS011;2795;47.652;13.128;2024-03-02T10:08:01;20.67;;;6.80;;
5543;SDS011;2795;47.652;13.128;2024-03-02T10:10:38;24.10;;;7.00;;
5543;SDS011;2795;47.652;13.128;2024-03-02T10:13:06;18.60;;;6.30;;
5543;SDS011;2795;47.652;13.128;2024-03-02T10:15:34;19.53;;;6.70;;
5543;SDS011;2795;47.652;13.128;2024-03-02T10:18:03;18.33;;;6.33;;
5543;SDS011;2795;47.652;13.128;2024-03-02T10:20:31;18.20;;;4.97;;
5543;SDS011;2795;47.652;13.128;2024-03-02T10:23:15;17.63;;;5.33;;
5543;SDS011;2795;47.652;13.128;2024-03-02T10:25:43;17.10;;;5.50;;
5543;SDS011;2795;47.652;13.128;2024-03-02T10:28:23;19.53;;;5.90;;
5543;SDS011;2795;47.652;13.128;2024-03-02T10:30:49;18.53;;;5.60;;
5543;SDS011;2795;47.652;13.128;2024-03-02T10:33:18;14.63;;;4.93;;
5543;SDS011;2795;47.652;13.128;2024-03-02T10:35:45;21.10;;;6.00;;
5543;SDS011;2795;47.652;13.128;2024-03-02T10:38:12;14.37;;;5.10;;
5543;SDS011;2795;47.652;13.128;2024-03-02T10:40:39;14.30;;;5.10;;
5543;SDS011;2795;47.652;13.128;2024-03-02T10:43:06;21.40;;;5.90;;
5543;SDS011;2795;47.652;13.128;2024-03-02T10:45:34;19.73;;;5.57;;
5543;SDS011;2795;47.652;13.128;2024-03-02T10:48:01;21.63;;;5.93;;
5543;SDS011;2795;47.652;13.128;2024-03-02T10:50:28;21.60;;;6.23;;
5543;SDS011;2795;47.652;13.128;2024-03-02T10:52:55;16.90;;;5.27;;
5543;SDS011;2795;47.652;13.128;2024-03-02T10:55:22;16.33;;;5.27;;
5543;SDS011;2795;47.652;13.128;2024-03-02T10:57:53;19.23;;;6.30;;
5543;SDS011;2795;47.652;13.128;2024-03-02T11:00:24;22.33;;;6.00;;
5543;SDS011;2795;47.652;13.128;2024-03-02T11:02:56;22.20;;;5.33;;
5543;SDS011;2795;47.652;13.128;2024-03-02T11:05:26;14.80;;;4.60;;
5543;SDS011;2795;47.652;13.128;2024-03-02T11:08:00;16.00;;;4.80;;
5543;SDS011;2795;47.652;13.128;2024-03-02T11:10:37;18.03;;;4.83;;
5543;SDS011;2795;47.652;13.128;2024-03-02T11:13:14;15.30;;;4.87;;
5543;SDS011;2795;47.652;13.128;2024-03-02T11:15:42;15.33;;;4.53;;
5543;SDS011;2795;47.652;13.128;2024-03-02T11:18:10;19.83;;;5.47;;
5543;SDS011;2795;47.652;13.128;2024-03-02T11:20:38;18.23;;;5.47;;
5543;SDS011;2795;47.652;13.128;2024-03-02T11:23:06;20.43;;;5.00;;
5543;SDS011;2795;47.652;13.128;2024-03-02T11:25:34;21.83;;;5.70;;
5543;SDS011;2795;47.652;13.128;2024-03-02T11:28:02;17.87;;;4.67;;
5543;SDS011;2795;47.652;13.128;2024-03-02T11:33:04;21.10;;;5.40;;
5543;SDS011;2795;47.652;13.128;2024-03-02T11:35:42;26.73;;;6.00;;
5543;SDS011;2795;47.652;13.128;2024-03-02T11:38:14;18.33;;;5.17;;
5543;SDS011;2795;47.652;13.128;2024-03-02T11:40:41;16.87;;;4.63;;
5543;SDS011;2795;47.652;13.128;2024-03-02T11:43:08;12.27;;;3.70;;
5543;SDS011;2795;47.652;13.128;2024-03-02T11:45:35;17.77;;;4.77;;
5543;SDS011;2795;47.652;13.128;2024-03-02T11:48:06;19.20;;;4.50;;
5543;SDS011;2795;47.652;13.128;2024-03-02T11:50:47;15.73;;;4.27;;
5543;SDS011;2795;47.652;13.128;2024-03-02T11:53:16;15.10;;;4.20;;
5543;SDS011;2795;47.652;13.128;2024-03-02T11:55:43;13.87;;;3.93;;
5543;SDS011;2795;47.652;13.128;2024-03-02T11:58:13;16.57;;;4.23;;
5543;SDS011;2795;47.652;13.128;2024-03-02T12:00:41;17.83;;;4.43;;
5543;SDS011;2795;47.652;13.128;2024-03-02T12:03:08;15.90;;;3.93;;
5543;SDS011;2795;47.652;13.128;2024-03-02T12:05:36;17.83;;;4.40;;
5543;SDS011;2795;47.652;13.128;2024-03-02T12:08:03;15.50;;;4.00;;
5543;SDS011;2795;47.652;13.128;2024-03-02T12:10:35;19.40;;;4.90;;
5543;SDS011;2795;47.652;13.128;2024-03-02T12:13:03;14.90;;;4.03;;
5543;SDS011;2795;47.652;13.128;2024-03-02T12:15:32;13.83;;;3.63;;
5543;SDS011;2795;47.652;13.128;2024-03-02T12:18:01;13.83;;;3.90;;
5543;SDS011;2795;47.652;13.128;2024-03-02T12:20:29;17.33;;;4.17;;
5543;SDS011;2795;47.652;13.128;2024-03-02T12:23:00;20.20;;;4.73;;
5543;SDS011;2795;47.652;13.128;2024-03-02T12:25:28;20.90;;;4.57;;
5543;SDS011;2795;47.652;13.128;2024-03-02T12:27:57;17.90;;;4.60;;
5543;SDS011;2795;47.652;13.128;2024-03-02T12:30:26;11.67;;;3.20;;
5543;SDS011;2795;47.652;13.128;2024-03-02T12:32:54;15.70;;;3.87;;
5543;SDS011;2795;47.652;13.128;2024-03-02T12:35:21;17.23;;;4.33;;
5543;SDS011;2795;47.652;13.128;2024-03-02T12:37:48;13.40;;;3.53;;
5543;SDS011;2795;47.652;13.128;2024-03-02T12:40:16;11.57;;;3.27;;
5543;SDS011;2795;47.652;13.128;2024-03-02T12:42:45;13.33;;;3.30;;
5543;SDS011;2795;47.652;13.128;2024-03-02T12:45:13;17.50;;;4.80;;
5543;SDS011;2795;47.652;13.128;2024-03-02T12:47:40;15.60;;;3.93;;
5543;SDS011;2795;47.652;13.128;2024-03-02T12:50:07;18.27;;;4.33;;
5543;SDS011;2795;47.652;13.128;2024-03-02T12:52:35;15.97;;;4.00;;
5543;SDS011;2795;47.652;13.128;2024-03-02T12:55:03;15.40;;;3.53;;
5543;SDS011;2795;47.652;13.128;2024-03-02T12:57:32;14.07;;;3.50;;
5543;SDS011;2795;47.652;13.128;2024-03-02T13:00:03;16.33;;;3.97;;
5543;SDS011;2795;47.652;13.128;2024-03-02T13:02:40;11.23;;;3.40;;
5543;SDS011;2795;47.652;13.128;2024-03-02T13:05:07;13.97;;;3.63;;
5543;SDS011;2795;47.652;13.128;2024-03-02T13:07:37;17.67;;;4.37;;
5543;SDS011;2795;47.652;13.128;2024-03-02T13:10:05;9.37;;;3.03;;
5543;SDS011;2795;47.652;13.128;2024-03-02T13:12:34;15.30;;;4.23;;
5543;SDS011;2795;47.652;13.128;2024-03-02T13:15:02;20.50;;;7.67;;
5543;SDS011;2795;47.652;13.128;2024-03-02T13:17:30;23.27;;;6.67;;
5543;SDS011;2795;47.652;13.128;2024-03-02T13:20:03;19.17;;;5.70;;
5543;SDS011;2795;47.652;13.128;2024-03-02T13:22:37;22.00;;;9.13;;
5543;SDS011;2795;47.652;13.128;2024-03-02T13:25:04;16.67;;;5.43;;
5543;SDS011;2795;47.652;13.128;2024-03-02T13:27:33;20.63;;;7.83;;
5543;SDS011;2795;47.652;13.128;2024-03-02T13:30:01;15.10;;;5.03;;
5543;SDS011;2795;47.652;13.128;2024-03-02T13:32:29;12.03;;;4.27;;
5543;SDS011;2795;47.652;13.128;2024-03-02T13:34:56;21.60;;;5.43;;
5543;SDS011;2795;47.652;13.128;2024-03-02T13:37:23;34.10;;;11.00;;
5543;SDS011;2795;47.652;13.128;2024-03-02T13:39:50;14.30;;;4.30;;
5543;SDS011;2795;47.652;13.128;2024-03-02T13:42:17;18.50;;;5.43;;
5543;SDS011;2795;47.652;13.128;2024-03-02T13:44:44;16.93;;;7.37;;
5543;SDS011;2795;47.652;13.128;2024-03-02T13:47:13;20.67;;;7.30;;
5543;SDS011;2795;47.652;13.128;2024-03-02T13:49:41;18.23;;;5.23;;
5543;SDS011;2795;47.652;13.128;2024-03-02T13:52:12;15.30;;;6.10;;
5543;SDS011;2795;47.652;13.128;2024-03-02T13:54:45;15.20;;;5.80;;
5543;SDS011;2795;47.652;13.128;2024-03-02T13:57:13;15.10;;;4.60;;
5543;SDS011;2795;47.652;13.128;2024-03-02T13:59:41;19.87;;;6.90;;
5543;SDS011;2795;47.652;13.128;2024-03-02T14:02:09;24.13;;;8.00;;
5543;SDS011;2795;47.652;13.128;2024-03-02T14:04:36;20.37;;;5.67;;
5543;SDS011;2795;47.652;13.128;2024-03-02T14:07:04;17.77;;;6.13;;
5543;SDS011;2795;47.652;13.128;2024-03-02T14:09:35;15.30;;;5.10;;
5543;SDS011;2795;47.652;13.128;2024-03-02T14:12:03;17.73;;;6.23;;
5543;SDS011;2795;47.652;13.128;2024-03-02T14:14:30;43.07;;;18.00;;
5543;SDS011;2795;47.652;13.128;2024-03-02T14:16:57;20.63;;;6.07;;
5543;SDS011;2795;47.652;13.128;2024-03-02T14:19:30;20.23;;;6.23;;
5543;SDS011;2795;47.652;13.128;2024-03-02T14:21:57;21.90;;;6.13;;
5543;SDS011;2795;47.652;13.128;2024-03-02T14:24:24;19.00;;;6.33;;
5543;SDS011;2795;47.652;13.128;2024-03-02T14:26:52;19.43;;;6.67;;
5543;SDS011;2795;47.652;13.128;2024-03-02T14:29:28;27.33;;;7.27;;
5543;SDS011;2795;47.652;13.128;2024-03-02T14:31:55;21.23;;;7.00;;
5543;SDS011;2795;47.652;13.128;2024-03-02T14:34:22;21.47;;;6.90;;
5543;SDS011;2795;47.652;13.128;2024-03-02T14:36:49;18.93;;;6.33;;
5543;SDS011;2795;47.652;13.128;2024-03-02T14:39:16;18.90;;;6.27;;
5543;SDS011;2795;47.652;13.128;2024-03-02T14:41:44;24.67;;;6.50;;
5543;SDS011;2795;47.652;13.128;2024-03-02T14:44:11;15.00;;;5.63;;
5543;SDS011;2795;47.652;13.128;2024-03-02T14:46:38;24.03;;;7.37;;
5543;SDS011;2795;47.652;13.128;2024-03-02T14:49:07;26.87;;;7.67;;
5543;SDS011;2795;47.652;13.128;2024-03-02T14:51:34;25.97;;;7.37;;
5543;SDS011;2795;47.652;13.128;2024-03-02T14:54:01;25.40;;;7.33;;